Huvudsida
METAR-TAF:

METAR-TAF

Flygplatser :

Campo de Marte Airport

São Paulo, São Paulo, Brasilien

latitud: 23-31S, longitud: 046-38W, höjd: 722 m

Aktuellt väderrapport

Denna rapport gjordes för 35 minuter sedan, klockan 22:00 UTC
Vind 6 kt från väst
Temperatur 23°C
Fuktighet 94%
Tryck 1014 hPa
Sikt: 8000 m
Spridda moln på en höjd av 1500 ft
Spridda moln på en höjd av 4900 ft
lätt regn

METAR: SBMT 192200Z 27006KT 8000 -RA SCT015 SCT049 23/22 Q1014

Tid: 19:35 (22:35 UTC)


TAF: saknas

Aktuella väderrapporter och prognoser från 4000 flygplatser (METAR- och TAF-rapporter).

De tillgängliga stationerna syns som gula och röda prickar på kartan.

För musen över prickarna för att se namnen på stationerna.

Klicka sedan för att få väderrapporter och prognoser.

För att ändra kartan: Klicka på de gröna knapparna med ett svart kors på för att zooma in; den gröna knappen med ett streck på för att zooma ut; eller på de gröna pilarna för angränsande kartor.


METAR-TAF: